Key West, FL

8:01 PM EDT on September 19, 2014 (GMT -0400)
Key West International | Change Station
CLOSE
Current Station
Airport
Location: Key West,
Elevation: 0 ft
Nearby Weather Stations

Elev 0 ft 24.56 °N, 81.75 °W | Updated 8 minutes ago

Clear
Clear
84 °F
Feels Like 91 °F
N
5
Wind Variable Wind from SSE

Today
High -- | Low -- °F
--% Chance of Precip.
Yesterday
High -- | Low -- °F
Precip. -- in
7:14 AM 7:26 PM
Waning Crescent, 16% visible
Pressure 29.93 in
Visibility 10.0 miles
Clouds Clear
Heat Index 91 °F
Dew Point 74 °F
Humidity 72%
Rainfall 0.00 in
Snow Depth Not available.
UV 0 out of 12
Pollen 3.30 out of 12
Air Quality Not available.
Flu Activity Not available.
METAR KEYW 192353Z 16004KT 10SM CLR 29/23 A2993 RMK AO2 SLP134 T02890233 10300 20289 51010

More Conditions Fewer Conditions

Pressure 29.93 in
Visibility 10.0 miles
Clouds Clear
Heat Index 91 °F
Dew Point 74 °F
Humidity 72%
Rainfall 0.00 in
Snow Depth Not available.
UV 0 out of 12
Pollen 3.30 out of 12
Air Quality Not available.
Flu Activity Not available.
METAR KEYW 192353Z 16004KT 10SM CLR 29/23 A2993 RMK AO2 SLP134 T02890233 10300 20289 51010

More Conditions Fewer Conditions

Nowcast | as of 7:31 PM EDT on September 19, 2014

Through 845 PM...widely separated showers and isolated thunderstorms will impact the Florida Keys...as well as nearshore and offshore waters surrounding the island chain. These showers and storms will move to the east-northeast at around 10 knots. The strongest storms will produce wind gusts near 25 knots...an occasional lightning strike...and brief...heavy rain...temporarily reducing the visibility to near two miles. Over land...the most likely area to see rainfall will be from North Key largo to Ocean Reef. The majority of showers and storms will be located over offshore Gulf of Mexico waters northwest of the Lower Keys.

×

10-Day Weather Forecast

Almanac

Astronomy

Sep. 19, 2014 Rise Set
Actual Time 7:14 AM EDT 7:26 PM EDT
Civil Twilight 6:51 AM EDT 7:49 PM EDT
Nautical Twilight 6:25 AM EDT 8:15 PM EDT
Astronomical Twilight 5:58 AM EDT 8:42 PM EDT
Moon 3:19 AM EDT (9/19) 4:35 PM EDT (9/19)
Length of Visible Light 12h 57m
Length of Day
12h 11m
Tomorrow will be 1m 26s shorter.
Waning Crescent, 16% of the Moon is Illuminated
Today
Waning Crescent
Sep 24
New
Oct 1
First Quarter
Oct 8
Full
Oct 15
Last Quarter

Today's Extremes

State Highs State Lows

Community

WunderPhotos

Upload Photos

1,754,734 photos uploaded!

WunderBlogs® & News

Nearby

Snow Depth

Station Depth Elevation
No new snow has been reported.

Earthquake Activity

City Distance Mag. Time & Date
No recent earthquake activity has been reported nearby.
Minimum magnitude displayed is 2.5.

Coastal Water Temperatures

Place Temperature
No Stations Reporting

Nearby Weather Stations